Time;durP1;ratioP1;P1;durP2;ratioP2;P2;SDS_P1;SDS_P2;PMS_P1;PMS_P2;Temp;Humidity;BMP_temperature;BMP_pressure;BME280_temperature;BME280_humidity;BME280_pressure;Samples;Min_cycle;Max_cycle;Signal;HPM_P1;HPM_P2
2023/05/07 00:00:54;;;;;;;3.27;1.60;;;;;;;17.43;59.89;99265.28;4860582;29;20240;-91
2023/05/07 00:03:21;;;;;;;5.53;1.93;;;;;;;17.35;60.29;99265.88;4860670;29;20185;-91
2023/05/07 00:05:46;;;;;;;5.23;2.30;;;;;;;17.19;60.77;99257.44;4846338;29;20344;-92
2023/05/07 00:08:13;;;;;;;8.00;2.07;;;;;;;17.08;61.26;99262.75;4848690;29;20212;-91
2023/05/07 00:10:40;;;;;;;3.33;2.03;;;;;;;17.01;61.46;99253.56;4882542;29;20693;-91
2023/05/07 00:13:07;;;;;;;6.50;2.00;;;;;;;16.99;61.66;99258.16;4882845;29;20200;-90
2023/05/07 00:15:34;;;;;;;18.00;2.87;;;;;;;17.02;61.46;99260.56;4882438;29;20194;-90
2023/05/07 00:17:59;;;;;;;6.43;1.80;;;;;;;17.02;61.29;99255.25;4866045;29;20344;-91
2023/05/07 00:20:25;;;;;;;6.50;1.97;;;;;;;16.92;61.67;99249.84;4865869;29;20238;-90
2023/05/07 00:22:50;;;;;;;7.70;1.97;;;;;;;16.98;61.34;99252.00;4865858;29;20614;-91
2023/05/07 00:25:16;;;;;;;3.07;1.70;;;;;;;16.95;61.04;99248.75;4882243;29;20192;-90
2023/05/07 00:27:41;;;;;;;5.80;2.83;;;;;;;16.82;61.32;99248.00;4865616;29;20578;-92
2023/05/07 00:30:08;;;;;;;6.53;2.47;;;;;;;16.65;61.86;99246.63;4881813;29;20192;-92
2023/05/07 00:32:34;;;;;;;4.73;2.20;;;;;;;16.62;62.13;99246.00;4865706;29;20194;-92
2023/05/07 00:34:59;;;;;;;4.13;2.00;;;;;;;16.54;62.43;99246.59;4882345;29;20258;-92
2023/05/07 00:37:25;;;;;;;8.20;2.23;;;;;;;16.43;62.82;99239.41;4865698;29;20209;-92
2023/05/07 00:39:51;;;;;;;4.23;1.97;;;;;;;16.31;63.46;99242.13;4881956;29;20239;-92
2023/05/07 00:42:16;;;;;;;4.27;1.83;;;;;;;16.18;64.20;99251.94;4865367;29;20195;-92
2023/05/07 00:44:43;;;;;;;3.43;1.80;;;;;;;16.11;64.64;99248.91;4865451;29;20196;-92
2023/05/07 00:47:08;;;;;;;6.83;2.20;;;;;;;16.15;64.67;99242.44;4866003;29;20738;-92
2023/05/07 00:49:44;;;;;;;4.83;2.10;;;;;;;16.19;64.36;99246.56;4881563;29;20184;-92
2023/05/07 00:52:14;;;;;;;8.30;2.40;;;;;;;16.30;64.02;99240.47;4865166;29;20189;-93
2023/05/07 00:54:41;;;;;;;5.27;2.10;;;;;;;16.28;64.09;99234.44;4873486;29;20223;-92
2023/05/07 00:57:06;;;;;;;7.07;2.47;;;;;;;16.29;64.24;99236.97;4862847;29;20191;-93
2023/05/07 00:59:33;;;;;;;5.10;2.63;;;;;;;16.42;63.57;99240.41;4847421;29;20177;-93
2023/05/07 01:01:59;;;;;;;7.67;3.83;;;;;;;16.49;63.15;99236.31;4863593;29;20184;-92
2023/05/07 01:04:26;;;;;;;5.63;2.60;;;;;;;16.51;62.99;99236.19;4846754;29;20196;-91
2023/05/07 01:06:55;;;;;;;5.33;2.60;;;;;;;16.53;62.84;99243.09;4850928;29;20203;-92
2023/05/07 01:09:22;;;;;;;7.50;2.87;;;;;;;16.56;62.67;99245.50;4881594;29;20197;-93
2023/05/07 01:11:51;;;;;;;7.17;2.70;;;;;;;16.43;63.36;99241.25;4864875;29;20664;-93
2023/05/07 01:14:19;;;;;;;6.17;2.83;;;;;;;16.31;63.42;99245.63;4865206;29;20201;-92
2023/05/07 01:16:44;;;;;;;8.30;4.17;;;;;;;16.23;63.83;99241.88;4880210;29;20184;-92
2023/05/07 01:19:14;;;;;;;8.80;2.53;;;;;;;16.21;63.87;99233.22;4881040;29;20187;-92
2023/05/07 01:21:45;;;;;;;8.87;2.53;;;;;;;16.08;64.43;99241.22;4881178;29;20191;-93
2023/05/07 01:24:12;;;;;;;9.73;3.23;;;;;;;16.01;64.72;99242.59;4881294;29;20239;-92
2023/05/07 01:26:38;;;;;;;8.20;2.80;;;;;;;15.94;64.92;99238.72;4864713;29;20226;-91
2023/05/07 01:29:05;;;;;;;9.93;3.07;;;;;;;15.93;64.92;99232.56;4864540;29;20188;-91
2023/05/07 01:31:34;;;;;;;6.00;3.00;;;;;;;15.94;64.57;99238.72;4864405;29;20219;-91
2023/05/07 01:34:03;;;;;;;8.27;3.00;;;;;;;15.89;64.63;99235.56;4864748;29;20185;-91
2023/05/07 01:36:31;;;;;;;13.40;3.23;;;;;;;15.89;64.44;99230.28;4852388;29;20196;-91
2023/05/07 01:38:58;;;;;;;6.80;3.13;;;;;;;15.87;64.17;99237.47;4862243;29;20248;-91
2023/05/07 01:41:24;;;;;;;9.53;2.97;;;;;;;15.82;63.99;99229.88;4853812;29;20559;-91
2023/05/07 01:43:52;;;;;;;9.63;3.03;;;;;;;15.76;64.18;99235.63;4881151;29;20243;-91
2023/05/07 01:46:18;;;;;;;12.27;3.90;;;;;;;15.71;64.10;99237.75;4881132;29;20235;-91
2023/05/07 01:48:45;;;;;;;6.17;2.90;;;;;;;15.68;64.35;99235.31;4865062;29;20277;-91
2023/05/07 01:51:11;;;;;;;8.33;2.63;;;;;;;15.64;64.65;99235.66;4863477;29;20188;-91
2023/05/07 01:53:38;;;;;;;6.93;2.53;;;;;;;15.63;64.24;99236.59;4864306;29;20206;-91
2023/05/07 01:56:04;;;;;;;5.00;3.00;;;;;;;15.57;64.34;99229.09;4863779;29;20593;-90
2023/05/07 01:58:32;;;;;;;6.03;2.33;;;;;;;15.53;64.36;99235.56;4861616;29;20383;-91
2023/05/07 02:00:59;;;;;;;7.47;3.20;;;;;;;15.52;64.36;99231.22;4855349;29;20283;-91
2023/05/07 02:03:25;;;;;;;7.00;2.43;;;;;;;15.53;64.57;99227.63;4864358;29;20197;-91
2023/05/07 02:05:51;;;;;;;4.17;2.60;;;;;;;15.48;65.25;99235.06;4864389;29;20595;-91
2023/05/07 02:08:17;;;;;;;10.50;2.80;;;;;;;15.46;65.85;99227.22;4864018;29;20214;-91
2023/05/07 02:10:43;;;;;;;5.57;2.20;;;;;;;15.46;65.69;99224.56;4864119;29;20179;-91
2023/05/07 02:13:08;;;;;;;8.50;2.57;;;;;;;15.46;65.25;99223.75;4864641;29;20183;-90
2023/05/07 02:15:35;;;;;;;8.83;2.73;;;;;;;15.43;65.26;99221.28;4863846;29;20526;-91
2023/05/07 02:18:04;;;;;;;3.67;2.23;;;;;;;15.39;65.07;99218.88;4853968;29;20187;-90
2023/05/07 02:20:30;;;;;;;6.13;2.50;;;;;;;15.32;65.18;99220.25;4861732;29;20613;-91
2023/05/07 02:22:55;;;;;;;6.00;3.10;;;;;;;15.27;64.96;99211.81;4845139;29;20190;-91
2023/05/07 02:25:20;;;;;;;6.50;2.50;;;;;;;15.13;65.19;99211.94;4861478;29;20187;-90
2023/05/07 02:27:46;;;;;;;5.73;2.83;;;;;;;15.08;65.39;99208.78;4863612;29;20313;-91
2023/05/07 02:30:13;;;;;;;16.13;3.47;;;;;;;15.01;65.32;99210.16;4863519;29;20190;-90
2023/05/07 02:32:40;;;;;;;12.47;3.60;;;;;;;14.99;65.54;99212.03;4863744;29;20191;-91
2023/05/07 02:35:06;;;;;;;10.40;3.00;;;;;;;14.99;65.20;99206.75;4880079;29;20187;-90
2023/05/07 02:37:32;;;;;;;7.87;2.63;;;;;;;14.98;65.49;99210.38;4863276;29;20263;-90
2023/05/07 02:39:57;;;;;;;12.33;3.50;;;;;;;15.04;65.19;99198.53;4879996;29;20674;-90
2023/05/07 02:42:23;;;;;;;7.10;2.90;;;;;;;15.09;66.33;99210.47;4879707;29;20186;-91
2023/05/07 02:44:49;;;;;;;5.90;2.80;;;;;;;15.12;66.61;99210.22;4863345;29;20226;-90
2023/05/07 02:47:15;;;;;;;12.97;3.27;;;;;;;15.09;67.65;99207.84;4863281;29;20245;-91
2023/05/07 02:49:41;;;;;;;9.53;2.67;;;;;;;15.08;67.95;99203.50;4863704;29;20243;-91
2023/05/07 02:52:07;;;;;;;6.80;3.10;;;;;;;15.13;68.30;99198.72;4879665;29;20731;-91
2023/05/07 02:54:32;;;;;;;8.90;3.40;;;;;;;15.17;68.19;99199.38;4863551;29;20185;-91
2023/05/07 02:56:58;;;;;;;8.77;3.30;;;;;;;15.20;67.91;99201.75;4863275;29;20582;-91
2023/05/07 02:59:26;;;;;;;6.87;3.60;;;;;;;15.19;67.25;99200.94;4879687;29;20227;-91
2023/05/07 03:01:51;;;;;;;5.73;2.87;;;;;;;15.11;66.48;99198.00;4861385;29;20186;-91
2023/05/07 03:04:16;;;;;;;6.70;2.73;;;;;;;15.05;65.95;99205.50;4861061;29;20325;-91
2023/05/07 03:06:43;;;;;;;6.10;3.03;;;;;;;14.96;65.85;99196.44;4844695;29;20210;-91
2023/05/07 03:09:10;;;;;;;8.00;2.93;;;;;;;14.94;65.81;99198.31;4844583;29;20314;-90
2023/05/07 03:11:37;;;;;;;8.20;2.87;;;;;;;14.95;65.60;99199.16;4860790;29;20198;-90
2023/05/07 03:14:03;;;;;;;8.43;3.67;;;;;;;15.00;65.81;99197.91;4861467;29;20197;-91
2023/05/07 03:16:29;;;;;;;6.47;3.30;;;;;;;14.98;67.34;99198.97;4861283;29;20181;-91
2023/05/07 03:18:54;;;;;;;7.80;3.00;;;;;;;14.96;68.15;99201.72;4861525;29;20199;-91
2023/05/07 03:21:20;;;;;;;6.37;2.70;;;;;;;14.96;68.66;99204.34;4844618;29;20190;-91
2023/05/07 03:23:45;;;;;;;8.30;2.80;;;;;;;15.01;69.10;99201.38;4845192;29;20602;-91
2023/05/07 03:26:11;;;;;;;6.00;2.73;;;;;;;14.97;68.84;99197.25;4844667;29;20520;-91
2023/05/07 03:28:38;;;;;;;5.27;2.70;;;;;;;15.13;68.46;99201.38;4844770;29;20225;-91
2023/05/07 03:31:04;;;;;;;5.60;3.13;;;;;;;15.15;68.59;99202.09;4844727;29;20546;-91
2023/05/07 03:33:32;;;;;;;6.57;2.97;;;;;;;15.23;68.47;99194.47;4844827;29;20204;-91
2023/05/07 03:35:59;;;;;;;5.53;2.70;;;;;;;15.30;67.88;99203.66;4852656;29;20249;-91
2023/05/07 03:38:25;;;;;;;5.13;2.40;;;;;;;15.30;67.84;99201.00;4862959;29;20620;-91
2023/05/07 03:40:51;;;;;;;6.20;2.80;;;;;;;15.35;67.78;99203.34;4882005;29;20214;-92
2023/05/07 03:43:18;;;;;;;4.13;2.40;;;;;;;15.38;67.40;99211.06;4866791;29;20691;-91
2023/05/07 03:45:43;;;;;;;5.70;2.37;;;;;;;15.44;67.07;99207.13;4883073;29;20305;-92
2023/05/07 03:48:10;;;;;;;5.77;3.00;;;;;;;15.48;67.13;99208.63;4882944;29;20662;-91
2023/05/07 03:50:37;;;;;;;5.67;2.90;;;;;;;15.47;66.96;99206.94;4869884;29;20625;-91
2023/05/07 03:53:03;;;;;;;6.23;2.60;;;;;;;15.50;66.78;99215.50;4864075;29;20191;-91
2023/05/07 03:55:30;;;;;;;5.10;2.40;;;;;;;15.55;66.91;99215.16;4848627;29;20196;-91
2023/05/07 03:57:56;;;;;;;4.27;2.17;;;;;;;15.57;66.69;99215.88;4864110;29;20620;-91
2023/05/07 04:00:23;;;;;;;7.77;2.47;;;;;;;15.53;67.20;99217.06;4866009;29;20252;-91
2023/05/07 04:02:49;;;;;;;4.97;2.37;;;;;;;15.62;67.04;99227.81;4882403;29;20180;-91
2023/05/07 04:05:15;;;;;;;3.83;2.07;;;;;;;15.70;67.21;99227.25;4882593;29;20634;-91
2023/05/07 04:07:41;;;;;;;5.03;2.57;;;;;;;15.74;66.94;99221.66;4882328;29;20213;-91
2023/05/07 04:10:06;;;;;;;8.47;2.83;;;;;;;15.77;67.12;99225.88;4882187;29;20666;-91
2023/05/07 04:12:32;;;;;;;4.87;2.63;;;;;;;15.76;67.14;99221.53;4866187;29;20196;-90
2023/05/07 04:14:58;;;;;;;6.03;2.17;;;;;;;15.93;66.69;99227.28;4882825;29;20184;-90
2023/05/07 04:17:24;;;;;;;4.37;2.53;;;;;;;16.12;66.22;99226.78;4866953;29;20182;-89
2023/05/07 04:19:49;;;;;;;4.13;2.17;;;;;;;16.18;65.84;99229.00;4865772;29;20517;-91
2023/05/07 04:22:15;;;;;;;5.63;2.37;;;;;;;16.30;65.30;99227.25;4865812;29;20191;-91
2023/05/07 04:24:41;;;;;;;5.70;2.10;;;;;;;16.55;64.77;99230.63;4866107;29;20284;-91
2023/05/07 04:27:08;;;;;;;4.67;2.20;;;;;;;16.81;64.25;99235.72;4882205;29;20237;-91
2023/05/07 04:29:34;;;;;;;5.73;2.43;;;;;;;17.02;63.75;99226.13;4865362;29;20199;-91
2023/05/07 04:32:00;;;;;;;3.17;1.77;;;;;;;17.30;62.77;99230.97;4865597;29;20236;-91
2023/05/07 04:34:25;;;;;;;4.97;2.50;;;;;;;17.59;61.25;99234.84;4865311;29;20191;-92
2023/05/07 04:36:51;;;;;;;5.33;2.33;;;;;;;17.75;61.08;99224.69;4865514;29;20184;-92
2023/05/07 04:39:18;;;;;;;11.07;2.40;;;;;;;17.83;59.72;99231.19;4865452;29;20198;-91
2023/05/07 04:41:43;;;;;;;8.20;2.40;;;;;;;18.08;59.91;99236.19;4882312;29;20264;-91
2023/05/07 04:44:10;;;;;;;3.40;1.83;;;;;;;18.35;59.56;99247.19;4882363;29;20211;-91
2023/05/07 04:46:36;;;;;;;4.23;1.90;;;;;;;18.55;57.92;99235.81;4864925;29;20236;-91
2023/05/07 04:49:01;;;;;;;3.00;1.80;;;;;;;18.82;58.15;99241.44;4865286;29;20252;-91
2023/05/07 04:51:28;;;;;;;4.30;2.10;;;;;;;19.10;56.60;99241.75;4881015;29;20196;-91
2023/05/07 04:53:55;;;;;;;6.17;2.40;;;;;;;19.15;56.25;99244.84;4864887;29;20175;-91
2023/05/07 04:56:21;;;;;;;5.73;2.17;;;;;;;19.30;57.29;99247.03;4881642;29;20180;-91
2023/05/07 04:58:48;;;;;;;3.53;1.90;;;;;;;19.54;56.32;99252.06;4863308;29;20278;-91
2023/05/07 05:01:14;;;;;;;4.77;2.17;;;;;;;19.92;55.37;99243.34;4877515;29;20270;-91
2023/05/07 05:03:41;;;;;;;5.77;2.50;;;;;;;20.40;53.67;99243.44;4862949;29;20638;-91
2023/05/07 05:06:06;;;;;;;4.47;2.60;;;;;;;20.95;52.62;99256.03;4881352;29;20622;-91
2023/05/07 05:08:32;;;;;;;6.00;2.20;;;;;;;21.42;52.24;99251.59;4869750;29;20203;-91
2023/05/07 05:10:57;;;;;;;6.77;2.80;;;;;;;21.75;49.04;99259.00;4862936;29;20268;-90
2023/05/07 05:13:23;;;;;;;6.97;2.53;;;;;;;22.29;48.47;99258.16;4846488;29;20188;-92
2023/05/07 05:15:50;;;;;;;6.90;2.57;;;;;;;22.84;46.36;99258.03;4862585;29;20184;-91
2023/05/07 05:18:15;;;;;;;5.80;3.00;;;;;;;23.21;45.74;99264.81;4862795;29;20190;-91
2023/05/07 05:20:41;;;;;;;5.70;2.60;;;;;;;23.30;44.62;99260.34;4871787;29;20199;-91
2023/05/07 05:23:08;;;;;;;5.40;3.17;;;;;;;23.24;44.37;99261.00;4864608;29;20202;-91
2023/05/07 05:25:35;;;;;;;8.53;3.10;;;;;;;23.04;44.89;99264.84;4881347;29;20180;-91
2023/05/07 05:28:01;;;;;;;6.53;2.73;;;;;;;23.12;44.85;99264.91;4880869;29;20196;-91
2023/05/07 05:30:28;;;;;;;5.60;2.80;;;;;;;23.51;44.48;99270.69;4874946;29;20211;-91
2023/05/07 05:32:55;;;;;;;5.67;2.67;;;;;;;23.61;43.70;99266.91;4878972;29;20818;-90
2023/05/07 05:35:22;;;;;;;7.07;2.40;;;;;;;23.61;43.70;99264.22;4875530;29;20214;-91
2023/05/07 05:37:48;;;;;;;5.47;2.47;;;;;;;23.44;43.64;99265.16;4861252;29;20187;-92
2023/05/07 05:40:15;;;;;;;8.57;3.30;;;;;;;23.39;44.83;99266.63;4854934;29;20191;-90
2023/05/07 05:42:41;;;;;;;7.00;2.60;;;;;;;23.54;45.37;99263.19;4879790;29;20192;-90
2023/05/07 05:45:08;;;;;;;5.10;2.67;;;;;;;23.76;44.36;99276.03;4876521;29;20894;-91
2023/05/07 05:47:35;;;;;;;5.73;3.00;;;;;;;23.49;43.54;99276.22;4868586;29;20578;-91
2023/05/07 05:50:02;;;;;;;8.23;3.03;;;;;;;23.31;43.76;99290.63;4861693;29;20195;-90
2023/05/07 05:52:29;;;;;;;11.87;3.27;;;;;;;23.38;43.99;99278.31;4861822;29;20196;-90
2023/05/07 05:54:56;;;;;;;5.87;2.63;;;;;;;23.21;44.57;99280.88;4861905;29;20275;-91
2023/05/07 05:57:22;;;;;;;6.60;3.37;;;;;;;23.37;44.51;99282.84;4875704;29;20188;-90
2023/05/07 05:59:49;;;;;;;6.33;2.53;;;;;;;23.44;45.15;99285.72;4880235;29;20224;-91
2023/05/07 06:02:16;;;;;;;3.10;1.80;;;;;;;23.74;44.68;99283.34;4852722;29;20192;-91
2023/05/07 06:04:42;;;;;;;5.60;2.47;;;;;;;24.06;43.45;99293.38;4861672;29;20191;-91
2023/05/07 06:07:09;;;;;;;4.53;2.60;;;;;;;24.22;41.73;99279.22;4845533;29;20256;-90
2023/05/07 06:09:36;;;;;;;5.43;1.97;;;;;;;24.18;42.25;99293.94;4861509;29;20188;-91
2023/05/07 06:12:03;;;;;;;3.63;1.77;;;;;;;23.77;42.53;99296.44;4861526;29;20223;-91
2023/05/07 06:14:29;;;;;;;4.47;2.10;;;;;;;23.54;43.50;99287.28;4861534;29;20259;-91
2023/05/07 06:16:56;;;;;;;8.23;2.10;;;;;;;23.52;43.60;99291.97;4845249;29;20195;-91
2023/05/07 06:19:23;;;;;;;5.53;2.00;;;;;;;23.61;42.89;99291.00;4844907;29;20188;-91
2023/05/07 06:21:50;;;;;;;4.80;2.10;;;;;;;23.58;43.57;99298.53;4862014;29;20188;-91
2023/05/07 06:24:17;;;;;;;5.33;2.33;;;;;;;23.60;43.50;99291.16;4879180;29;20197;-91
2023/05/07 06:26:43;;;;;;;4.93;2.37;;;;;;;23.63;44.15;99294.38;4879892;29;20184;-91
2023/05/07 06:29:10;;;;;;;5.20;1.97;;;;;;;23.78;43.69;99295.44;4868454;29;20192;-91
2023/05/07 06:31:36;;;;;;;5.67;2.33;;;;;;;23.91;44.82;99291.47;4861599;29;20612;-91
2023/05/07 06:34:03;;;;;;;5.70;2.50;;;;;;;24.09;44.76;99284.19;4860530;29;20217;-91
2023/05/07 06:36:30;;;;;;;2.90;1.87;;;;;;;24.14;42.02;99288.06;4856911;29;20192;-92
2023/05/07 06:38:56;;;;;;;4.20;1.63;;;;;;;24.07;41.65;99291.53;4861346;29;20187;-92
2023/05/07 06:41:23;;;;;;;3.40;1.50;;;;;;;23.97;41.83;99290.84;4861336;29;20283;-89
2023/05/07 06:43:50;;;;;;;6.17;1.97;;;;;;;23.88;42.90;99297.97;4861403;29;20195;-91
2023/05/07 06:46:17;;;;;;;5.10;2.17;;;;;;;23.94;43.96;99291.16;4844765;29;20232;-91
2023/05/07 06:48:43;;;;;;;5.87;2.17;;;;;;;24.10;44.28;99296.59;4863329;29;20722;-92
2023/05/07 06:51:10;;;;;;;4.33;2.23;;;;;;;24.19;42.73;99295.63;4859351;29;20211;-93
2023/05/07 06:53:37;;;;;;;5.60;2.07;;;;;;;24.34;43.16;99289.47;4863199;29;20188;-92
2023/05/07 06:56:04;;;;;;;5.30;2.17;;;;;;;24.38;43.94;99289.97;4879685;29;20179;-93
2023/05/07 06:58:31;;;;;;;5.50;1.97;;;;;;;24.54;44.63;99289.16;4863282;29;20180;-92
2023/05/07 07:00:58;;;;;;;5.63;2.10;;;;;;;24.70;41.67;99295.41;4877230;29;20184;-93
2023/05/07 07:03:25;;;;;;;4.20;1.90;;;;;;;24.85;42.91;99291.06;4844852;29;20196;-92
2023/05/07 07:05:55;;;;;;;4.00;2.00;;;;;;;25.02;41.13;99295.44;4860909;29;20176;-93
2023/05/07 07:08:22;;;;;;;5.20;2.17;;;;;;;25.15;41.61;99294.09;4844146;29;20279;-92
2023/05/07 07:10:48;;;;;;;3.73;2.00;;;;;;;25.18;40.08;99291.91;4860447;29;20198;-94
2023/05/07 07:13:15;;;;;;;5.73;2.03;;;;;;;25.29;39.75;99291.53;4844778;29;20192;-93
2023/05/07 07:15:42;;;;;;;3.03;1.87;;;;;;;25.39;38.30;99299.44;4847217;29;20544;-94
2023/05/07 07:18:09;;;;;;;6.13;1.80;;;;;;;25.24;37.90;99298.41;4864956;29;20192;-92
2023/05/07 07:20:36;;;;;;;3.33;1.73;;;;;;;25.18;39.60;99293.75;4875358;29;20192;-95
2023/05/07 07:23:02;;;;;;;3.63;1.60;;;;;;;;;;4866732;29;20525;-94
2023/05/07 07:25:28;;;;;;;7.27;1.60;;;;;;;24.92;37.14;99300.13;4866850;29;20286;-94
2023/05/07 07:27:54;;;;;;;2.97;1.47;;;;;;;25.10;37.86;99304.50;4866691;29;20274;-93
2023/05/07 07:30:19;;;;;;;4.53;1.70;;;;;;;25.35;39.04;99306.97;4860141;29;20195;-94
2023/05/07 07:32:45;;;;;;;7.73;1.73;;;;;;;25.56;38.54;99309.97;4850371;29;20200;-94
2023/05/07 07:35:11;;;;;;;4.20;2.10;;;;;;;25.61;40.53;99304.09;4855412;29;20238;-93
2023/05/07 07:37:36;;;;;;;4.93;2.03;;;;;;;25.97;39.70;99302.63;4866348;29;20243;-93
2023/05/07 07:40:03;;;;;;;6.00;1.80;;;;;;;26.14;39.78;99304.28;4865990;29;20184;-94
2023/05/07 07:42:29;;;;;;;4.00;1.87;;;;;;;26.68;40.13;99302.44;4865908;29;20199;-93
2023/05/07 07:44:55;;;;;;;4.90;1.60;;;;;;;26.93;37.49;99307.66;4866499;29;20223;-94
2023/05/07 07:47:20;;;;;;;4.22;1.77;;;;;;;26.99;37.65;99309.63;4866261;29;20223;-95
2023/05/07 07:49:45;;;;;;;4.53;1.77;;;;;;;27.29;35.70;99320.28;4865057;29;20529;-94
2023/05/07 07:52:11;;;;;;;3.60;1.55;;;;;;;27.20;34.70;99318.69;4864910;29;20177;-96
2023/05/07 07:54:36;;;;;;;5.50;1.67;;;;;;;27.31;35.60;99323.63;4848312;29;20188;-95
2023/05/07 07:57:02;;;;;;;2.90;1.33;;;;;;;27.37;36.46;99314.84;4864614;29;20267;-94
2023/05/07 07:59:28;;;;;;;3.90;1.77;;;;;;;27.49;36.84;99327.88;4847998;29;20612;-95
2023/05/07 08:01:55;;;;;;;3.20;1.70;;;;;;;27.34;34.90;99317.88;4848704;29;20634;-94
2023/05/07 08:04:21;;;;;;;3.30;1.67;;;;;;;27.23;35.33;99315.63;4848359;29;20275;-95
2023/05/07 08:06:49;;;;;;;3.63;1.80;;;;;;;27.24;35.33;99321.84;4848134;29;20180;-95
2023/05/07 08:09:15;;;;;;;5.80;2.03;;;;;;;27.38;36.58;99329.13;4849466;29;20188;-96
2023/05/07 08:11:41;;;;;;;2.53;1.50;;;;;;;27.31;35.11;99320.09;4848010;29;20537;-95
2023/05/07 08:14:06;;;;;;;2.55;1.30;;;;;;;27.42;35.87;99320.53;4850622;29;20190;-94
2023/05/07 08:16:31;;;;;;;3.10;1.48;;;;;;;27.38;34.18;99318.38;4866468;29;20180;-93
2023/05/07 08:18:57;;;;;;;3.83;1.30;;;;;;;27.14;34.79;99316.75;4866505;29;20274;-94
2023/05/07 08:21:25;;;;;;;5.68;2.13;;;;;;;27.11;34.85;99306.34;4867705;29;20176;-95
2023/05/07 08:23:51;;;;;;;2.75;1.40;;;;;;;27.17;34.28;99319.06;4866257;29;20560;-94
2023/05/07 08:26:24;;;;;;;5.30;1.50;;;;;;;27.04;34.95;99308.09;4866299;29;20202;-94
2023/05/07 08:28:50;;;;;;;3.10;1.50;;;;;;;26.90;34.70;99311.53;4865702;29;20252;-94
2023/05/07 08:31:15;;;;;;;4.65;1.88;;;;;;;27.15;36.82;99304.94;4866630;29;20188;-96
2023/05/07 08:33:41;;;;;;;4.57;1.80;;;;;;;27.40;34.68;99306.44;4866243;29;20623;-94
2023/05/07 08:36:06;;;;;;;5.80;1.90;;;;;;;27.33;33.62;99302.75;4866028;29;20212;-93
2023/05/07 08:38:32;;;;;;;2.83;1.40;;;;;;;27.12;33.13;99309.88;4866192;29;20184;-95
2023/05/07 08:40:57;;;;;;;4.57;1.38;;;;;;;26.93;34.58;99311.19;4855621;29;20204;-95
2023/05/07 08:43:27;;;;;;;4.57;1.50;;;;;;;27.00;34.79;99306.75;4847642;29;20216;-95
2023/05/07 08:45:56;;;;;;;2.70;1.30;;;;;;;27.12;36.10;99307.97;4847538;29;20208;-93
2023/05/07 08:48:26;;;;;;;4.82;1.40;;;;;;;27.19;35.83;99300.88;4847624;29;20307;-94
2023/05/07 08:50:51;;;;;;;2.78;1.33;;;;;;;26.98;34.04;99308.78;4847187;29;20192;-94
2023/05/07 08:53:17;;;;;;;3.00;1.63;;;;;;;27.08;35.73;99304.00;4847782;29;20260;-94
2023/05/07 08:55:43;;;;;;;3.10;1.08;;;;;;;26.93;31.98;99305.81;4848028;29;20211;-96
2023/05/07 08:58:09;;;;;;;8.57;1.50;;;;;;;27.06;32.73;99306.03;4847931;29;20631;-96
2023/05/07 09:00:40;;;;;;;5.78;1.33;;;;;;;27.16;33.36;99303.94;4849055;29;20193;-96
2023/05/07 09:03:12;;;;;;;2.25;1.00;;;;;;;26.83;31.61;99303.34;4848987;29;20188;-95
2023/05/07 09:05:37;;;;;;;6.32;1.40;;;;;;;26.86;30.75;99307.53;4849463;29;20184;-96
2023/05/07 09:08:16;;;;;;;1.90;0.93;;;;;;;26.97;30.13;99307.09;4849394;29;20694;-95
2023/05/07 09:10:44;;;;;;;6.25;1.15;;;;;;;27.24;30.94;99306.53;4862540;29;20677;-95
2023/05/07 09:13:14;;;;;;;1.95;0.90;;;;;;;27.23;32.33;99293.25;4848414;29;20188;-95
2023/05/07 09:15:44;;;;;;;3.10;1.27;;;;;;;27.08;32.27;99292.38;4847292;29;20248;-93
2023/05/07 09:18:09;;;;;;;3.33;1.05;;;;;;;27.17;33.21;99292.16;4846482;29;20181;-95
2023/05/07 09:20:50;;;;;;;6.40;1.40;;;;;;;27.08;30.06;99285.16;4847839;29;20530;-95
2023/05/07 09:23:57;;;;;;;2.15;0.95;;;;;;;27.03;32.57;99284.88;4848120;29;20266;-94
2023/05/07 09:26:24;;;;;;;5.80;1.42;;;;;;;26.97;30.18;99288.28;4847110;29;20558;-95
2023/05/07 09:28:51;;;;;;;3.35;1.15;;;;;;;26.93;31.73;99288.81;4847040;29;20220;-95
2023/05/07 09:31:16;;;;;;;2.38;1.02;;;;;;;26.92;30.87;99269.16;4846677;29;20271;-95
2023/05/07 09:33:42;;;;;;;1.75;0.70;;;;;;;26.69;31.94;99274.53;4846957;29;20279;-95
2023/05/07 09:36:11;;;;;;;6.35;0.80;;;;;;;27.08;30.99;99279.78;4862060;29;20634;-92
2023/05/07 09:38:38;;;;;;;2.50;1.17;;;;;;;27.11;31.48;99271.34;4846874;29;20196;-94
2023/05/07 09:41:11;;;;;;;2.10;1.02;;;;;;;26.98;30.78;99271.13;4846401;29;20195;-93
2023/05/07 09:43:38;;;;;;;4.35;1.05;;;;;;;27.26;31.24;99261.44;4847052;29;20219;-95
2023/05/07 09:46:11;;;;;;;2.78;1.33;;;;;;;27.30;31.00;99265.44;4863397;29;20677;-95
2023/05/07 09:48:40;;;;;;;4.07;1.52;;;;;;;27.52;29.43;99258.31;4865200;29;20199;-94
2023/05/07 09:51:28;;;;;;;4.20;1.27;;;;;;;27.26;30.73;99253.34;4865436;29;20560;-94
2023/05/07 09:53:53;;;;;;;2.40;1.10;;;;;;;27.50;30.93;99249.59;4865262;29;20172;-93
2023/05/07 09:56:21;;;;;;;2.08;0.80;;;;;;;27.05;32.08;99252.38;4864638;29;20187;-93
2023/05/07 09:58:47;;;;;;;4.80;1.38;;;;;;;27.55;30.88;99247.19;4864468;29;20215;-93
2023/05/07 10:01:13;;;;;;;3.10;1.23;;;;;;;27.72;31.76;99247.84;4864562;29;20183;-95
2023/05/07 10:03:44;;;;;;;3.55;1.08;;;;;;;28.18;30.84;99246.56;4864705;29;20187;-93
2023/05/07 10:06:10;;;;;;;2.67;1.02;;;;;;;28.53;30.77;99250.28;4880862;29;20240;-95
2023/05/07 10:08:37;;;;;;;3.03;0.80;;;;;;;27.77;28.80;99256.19;4854132;29;20204;-94
2023/05/07 10:11:05;;;;;;;3.28;1.05;;;;;;;28.02;28.80;99244.09;4860783;29;20767;-94
2023/05/07 10:13:36;;;;;;;2.08;0.80;;;;;;;28.14;28.53;99245.31;4846753;29;20185;-92
2023/05/07 10:16:10;;;;;;;5.22;1.35;;;;;;;28.16;27.62;99245.94;4874945;29;20194;-93
2023/05/07 10:18:38;;;;;;;1.88;0.70;;;;;;;28.22;27.12;99247.88;4861910;29;20176;-94
2023/05/07 10:21:10;;;;;;;3.75;0.95;;;;;;;28.14;28.06;99237.22;4846148;29;20260;-94
2023/05/07 10:23:36;;;;;;;2.10;0.88;;;;;;;28.23;27.61;99246.84;4862486;29;20210;-93
2023/05/07 10:26:07;;;;;;;2.38;0.57;;;;;;;28.27;26.74;99242.75;4846626;29;20263;-94
2023/05/07 10:28:38;;;;;;;2.05;0.60;;;;;;;28.39;26.94;99230.41;4846445;29;20211;-94
2023/05/07 10:31:31;;;;;;;3.05;0.63;;;;;;;28.43;27.32;99242.47;4849083;29;20177;-96
2023/05/07 10:33:59;;;;;;;2.17;0.75;;;;;;;28.12;27.92;99241.13;4847113;29;20177;-95
2023/05/07 10:36:27;;;;;;;2.17;0.82;;;;;;;28.28;26.17;99227.38;4857482;29;20183;-95
2023/05/07 10:38:58;;;;;;;1.35;0.50;;;;;;;28.35;26.78;99234.53;4870632;29;20206;-96
2023/05/07 10:41:23;;;;;;;1.08;0.57;;;;;;;28.37;26.68;99232.50;4866719;29;20555;-96
2023/05/07 10:43:49;;;;;;;1.40;0.68;;;;;;;28.65;27.20;99221.78;4866742;29;20187;-95
2023/05/07 10:46:34;;;;;;;1.65;0.57;;;;;;;28.73;26.70;99223.50;4865152;29;20232;-96
2023/05/07 10:49:02;;;;;;;2.42;1.05;;;;;;;29.04;26.92;99230.22;4867375;29;20530;-95
2023/05/07 10:51:29;;;;;;;1.58;0.75;;;;;;;29.22;24.97;99221.63;4869395;29;20195;-95
2023/05/07 10:54:27;;;;;;;0.77;0.30;;;;;;;29.27;24.88;99213.81;4870305;29;20183;-95
2023/05/07 10:56:58;;;;;;;1.40;0.70;;;;;;;29.07;26.11;99219.03;4862364;29;20753;-96
2023/05/07 10:59:59;;;;;;;3.97;0.77;;;;;;;28.90;25.83;99220.34;4874431;29;20188;-96
2023/05/07 11:02:59;;;;;;;3.25;0.90;;;;;;;29.00;25.12;99217.31;4871875;29;20171;-96
2023/05/07 11:05:33;;;;;;;2.78;0.93;;;;;;;29.04;25.74;99207.78;4858950;29;20194;-96
2023/05/07 11:08:02;;;;;;;2.40;0.70;;;;;;;29.06;25.25;99208.44;4870228;29;20228;-95
2023/05/07 11:10:58;;;;;;;1.70;0.85;;;;;;;28.98;25.80;99213.97;4870484;29;20180;-95
2023/05/07 11:13:46;;;;;;;2.72;0.68;;;;;;;28.81;26.50;99201.78;4866691;29;20180;-95
2023/05/07 11:16:19;;;;;;;2.45;0.52;;;;;;;29.04;26.23;99202.38;4873499;29;20192;-96
2023/05/07 11:18:53;;;;;;;4.10;0.95;;;;;;;28.61;29.07;99197.06;4865599;29;20219;-95
2023/05/07 11:21:38;;;;;;;4.10;0.90;;;;;;;29.05;25.76;99198.66;4857349;29;20187;-96
2023/05/07 11:24:05;;;;;;;3.50;0.90;;;;;;;28.66;26.37;99201.88;4860354;29;20610;-96
2023/05/07 11:26:45;;;;;;;3.88;0.90;;;;;;;28.69;25.94;99201.50;4866100;29;20234;-95
2023/05/07 11:29:21;;;;;;;1.73;0.75;;;;;;;28.98;26.39;99197.78;4872129;29;20195;-96
2023/05/07 11:31:51;;;;;;;2.85;1.00;;;;;;;28.93;27.14;99194.84;4866535;29;20191;-95
2023/05/07 11:34:25;;;;;;;1.77;0.80;;;;;;;29.03;26.41;99201.56;4865117;29;20190;-95
2023/05/07 11:36:51;;;;;;;4.50;1.00;;;;;;;29.21;26.31;99187.59;4866979;29;20184;-95